Time;durP1;ratioP1;P1;durP2;ratioP2;P2;SDS_P1;SDS_P2;PMS_P1;PMS_P2;Temp;Humidity;BMP_temperature;BMP_pressure;BME280_temperature;BME280_humidity;BME280_pressure;Samples;Min_cycle;Max_cycle;Signal;HPM_P1;HPM_P2
2021/06/14 00:00:36;;;;;;;3.97;3.53;;;18.90;99.90;;;;;;5073292;28;20210;-77
2021/06/14 00:03:02;;;;;;;6.47;3.90;;;19.00;99.90;;;;;;5071851;28;20539;-78
2021/06/14 00:05:44;;;;;;;5.10;4.30;;;18.80;99.90;;;;;;5073232;28;20166;-77
2021/06/14 00:08:18;;;;;;;5.35;3.80;;;18.70;99.90;;;;;;5073017;28;20197;-78
2021/06/14 00:10:45;;;;;;;4.22;3.25;;;18.80;99.90;;;;;;5072627;28;20559;-78
2021/06/14 00:13:11;;;;;;;3.95;3.55;;;18.70;99.90;;;;;;5072432;28;20205;-80
2021/06/14 00:15:38;;;;;;;12.20;4.43;;;18.70;99.90;;;;;;5072736;28;20170;-78
2021/06/14 00:18:05;;;;;;;8.52;5.13;;;18.70;99.90;;;;;;5072826;28;20174;-78
2021/06/14 00:20:31;;;;;;;6.13;4.15;;;18.70;99.90;;;;;;5072966;28;20285;-80
2021/06/14 00:22:57;;;;;;;4.90;4.05;;;18.60;99.90;;;;;;5072541;28;20159;-78
2021/06/14 00:25:25;;;;;;;14.70;3.72;;;18.60;99.90;;;;;;5072185;28;20201;-78
2021/06/14 00:27:52;;;;;;;6.38;3.88;;;18.60;99.90;;;;;;5072431;28;20162;-77
2021/06/14 00:30:24;;;;;;;9.65;3.83;;;18.60;99.90;;;;;;5072690;28;20241;-78
2021/06/14 00:32:50;;;;;;;6.68;4.25;;;18.50;99.90;;;;;;5073923;28;20721;-78
2021/06/14 00:35:16;;;;;;;9.70;3.28;;;18.70;99.90;;;;;;5084955;28;20170;-77
2021/06/14 00:37:42;;;;;;;7.05;3.45;;;18.50;99.90;;;;;;5095763;28;20170;-77
2021/06/14 00:40:08;;;;;;;6.05;3.47;;;18.50;99.90;;;;;;5097337;28;20177;-78
2021/06/14 00:42:34;;;;;;;4.88;3.45;;;18.40;99.90;;;;;;5079799;28;20634;-78
2021/06/14 00:44:59;;;;;;;4.03;3.55;;;18.40;99.90;;;;;;5072476;28;20162;-78
2021/06/14 00:47:25;;;;;;;6.88;3.88;;;18.40;99.90;;;;;;5071996;28;20515;-78
2021/06/14 00:49:50;;;;;;;5.50;3.63;;;18.30;99.90;;;;;;5072487;28;20189;-78
2021/06/14 00:52:16;;;;;;;5.25;3.85;;;18.20;99.90;;;;;;5072398;28;20171;-78
2021/06/14 00:54:42;;;;;;;8.45;4.50;;;18.10;99.90;;;;;;5072331;28;20259;-79
2021/06/14 00:57:08;;;;;;;5.80;4.28;;;18.00;99.90;;;;;;5072297;28;20178;-78
2021/06/14 00:59:33;;;;;;;5.68;3.85;;;18.00;99.90;;;;;;5072454;28;20198;-78
2021/06/14 01:01:59;;;;;;;6.32;3.78;;;17.90;99.90;;;;;;5071782;28;20194;-78
2021/06/14 01:04:24;;;;;;;15.48;4.57;;;17.90;99.90;;;;;;5071956;28;20170;-78
2021/06/14 01:06:50;;;;;;;7.93;3.53;;;18.00;99.90;;;;;;5072184;28;20185;-79
2021/06/14 01:09:16;;;;;;;15.90;3.88;;;18.00;99.90;;;;;;5072351;28;20224;-78
2021/06/14 01:11:42;;;;;;;6.50;3.50;;;17.90;99.90;;;;;;5072191;28;20186;-78
2021/06/14 01:14:18;;;;;;;8.43;4.00;;;18.00;99.90;;;;;;5072228;28;20210;-79
2021/06/14 01:16:48;;;;;;;6.55;4.60;;;18.00;99.90;;;;;;5071994;28;20289;-78
2021/06/14 01:19:48;;;;;;;5.25;3.05;;;18.10;99.90;;;;;;5072254;28;20163;-78
2021/06/14 01:22:39;;;;;;;5.85;3.83;;;18.00;99.90;;;;;;5071792;28;20523;-78
2021/06/14 01:25:40;;;;;;;5.35;3.88;;;18.00;99.90;;;;;;5071721;28;20631;-78
2021/06/14 01:28:08;;;;;;;4.53;3.50;;;18.00;99.90;;;;;;5058132;28;20206;-78
2021/06/14 01:30:37;;;;;;;4.75;3.38;;;18.10;99.90;;;;;;5071840;28;20188;-78
2021/06/14 01:33:06;;;;;;;6.25;4.28;;;18.00;99.90;;;;;;5071428;28;20694;-78
2021/06/14 01:35:36;;;;;;;4.32;3.92;;;17.90;99.90;;;;;;5072073;28;20208;-78
2021/06/14 01:38:04;;;;;;;4.45;3.92;;;17.70;99.90;;;;;;5074980;28;20247;-78
2021/06/14 01:40:31;;;;;;;9.25;4.05;;;17.80;99.90;;;;;;5075396;28;20657;-78
2021/06/14 01:43:00;;;;;;;7.93;3.83;;;17.80;99.90;;;;;;5075455;28;20175;-78
2021/06/14 01:45:28;;;;;;;8.73;4.18;;;17.90;99.90;;;;;;5075368;28;20190;-80
2021/06/14 01:47:56;;;;;;;6.05;3.83;;;17.80;99.90;;;;;;5075317;28;20249;-79
2021/06/14 01:50:22;;;;;;;6.32;4.05;;;17.80;99.90;;;;;;5075197;28;20552;-78
2021/06/14 01:52:49;;;;;;;5.60;3.85;;;17.60;99.90;;;;;;5075007;28;20245;-78
2021/06/14 01:55:16;;;;;;;9.52;3.80;;;17.60;99.90;;;;;;5075567;28;20166;-78
2021/06/14 01:57:43;;;;;;;8.10;4.38;;;17.60;99.90;;;;;;5075442;28;20245;-80
2021/06/14 02:00:09;;;;;;;8.45;3.80;;;17.60;99.90;;;;;;5074077;28;20198;-78
2021/06/14 02:02:37;;;;;;;10.00;3.95;;;17.60;99.90;;;;;;5075295;28;20623;-78
2021/06/14 02:05:03;;;;;;;6.30;3.83;;;17.50;99.90;;;;;;5074983;28;20561;-78
2021/06/14 02:07:30;;;;;;;4.55;3.67;;;17.30;99.90;;;;;;5075051;28;20194;-78
2021/06/14 02:09:56;;;;;;;3.38;3.05;;;17.30;99.90;;;;;;5075030;28;20181;-78
2021/06/14 02:12:23;;;;;;;4.57;3.88;;;17.40;99.90;;;;;;5075238;28;20179;-78
2021/06/14 02:14:50;;;;;;;9.93;3.88;;;17.60;99.90;;;;;;5074983;28;20236;-78
2021/06/14 02:17:20;;;;;;;5.60;3.83;;;17.60;99.90;;;;;;5074839;28;20170;-78
2021/06/14 02:19:47;;;;;;;10.60;4.00;;;17.60;99.90;;;;;;5074936;28;20217;-78
2021/06/14 02:22:15;;;;;;;11.18;3.75;;;17.60;99.90;;;;;;5075211;28;20190;-78
2021/06/14 02:24:41;;;;;;;6.18;4.22;;;17.60;99.90;;;;;;5075241;28;20167;-78
2021/06/14 02:27:09;;;;;;;6.72;3.90;;;17.40;99.90;;;;;;5074901;28;20177;-78
2021/06/14 02:29:35;;;;;;;7.40;3.97;;;17.40;99.90;;;;;;5074913;28;20249;-78
2021/06/14 02:32:01;;;;;;;9.13;4.65;;;17.40;99.90;;;;;;5074382;28;20270;-78
2021/06/14 02:34:27;;;;;;;12.80;3.80;;;17.30;99.90;;;;;;5074111;28;20609;-78
2021/06/14 02:36:54;;;;;;;6.50;3.97;;;17.30;99.90;;;;;;5074150;28;20177;-78
2021/06/14 02:39:24;;;;;;;9.15;5.18;;;17.20;99.90;;;;;;5074103;28;20166;-78
2021/06/14 02:41:51;;;;;;;10.35;4.60;;;17.20;99.90;;;;;;5074024;28;20190;-78
2021/06/14 02:44:17;;;;;;;18.98;4.80;;;17.20;99.90;;;;;;5074670;28;20167;-79
2021/06/14 02:46:44;;;;;;;8.13;4.25;;;17.20;99.90;;;;;;5074428;28;20174;-78
2021/06/14 02:49:11;;;;;;;10.27;4.90;;;17.30;99.90;;;;;;5073868;28;20173;-78
2021/06/14 02:51:40;;;;;;;14.32;4.82;;;17.40;99.90;;;;;;5074452;28;20170;-78
2021/06/14 02:54:10;;;;;;;11.32;4.60;;;17.30;99.90;;;;;;5074203;28;20236;-78
2021/06/14 02:56:38;;;;;;;9.85;4.03;;;17.30;99.90;;;;;;5074526;28;20166;-79
2021/06/14 02:59:08;;;;;;;9.95;4.72;;;17.30;99.90;;;;;;5074169;28;20220;-78
2021/06/14 03:01:35;;;;;;;10.52;5.15;;;17.50;99.90;;;;;;5073905;28;20225;-78
2021/06/14 03:04:03;;;;;;;11.07;4.00;;;17.60;99.90;;;;;;5074148;28;20167;-78
2021/06/14 03:06:29;;;;;;;15.80;4.50;;;17.40;99.90;;;;;;5073803;28;20158;-78
2021/06/14 03:08:56;;;;;;;9.18;4.85;;;17.40;99.90;;;;;;5073979;28;20193;-78
2021/06/14 03:11:27;;;;;;;7.30;4.57;;;17.50;99.90;;;;;;5074144;28;20189;-78
2021/06/14 03:13:53;;;;;;;9.73;3.90;;;17.50;99.90;;;;;;5074451;28;20210;-78
2021/06/14 03:16:22;;;;;;;10.52;4.47;;;17.40;99.90;;;;;;5097333;28;20161;-75
2021/06/14 03:18:49;;;;;;;4.65;3.60;;;17.60;99.90;;;;;;5096256;28;20182;-78
2021/06/14 03:21:15;;;;;;;19.90;5.05;;;17.70;99.90;;;;;;5095117;28;20182;-77
2021/06/14 03:23:41;;;;;;;6.07;4.88;;;17.50;99.90;;;;;;5075178;28;20194;-77
2021/06/14 03:26:12;;;;;;;6.65;4.75;;;17.50;99.90;;;;;;5075582;28;20650;-78
2021/06/14 03:28:42;;;;;;;8.55;4.65;;;17.40;99.90;;;;;;5074434;28;20167;-78
2021/06/14 03:31:09;;;;;;;8.07;4.68;;;17.30;99.90;;;;;;5074060;28;20198;-78
2021/06/14 03:33:35;;;;;;;10.40;4.60;;;17.30;99.90;;;;;;5074224;28;20197;-78
2021/06/14 03:36:02;;;;;;;9.43;4.97;;;17.30;99.90;;;;;;5072827;28;20533;-79
2021/06/14 03:38:27;;;;;;;11.82;4.10;;;17.40;99.90;;;;;;5073980;28;20162;-78
2021/06/14 03:40:53;;;;;;;8.27;4.63;;;17.40;99.90;;;;;;5073850;28;20571;-77
2021/06/14 03:43:19;;;;;;;6.75;3.72;;;17.20;99.90;;;;;;5074191;28;20182;-77
2021/06/14 03:45:45;;;;;;;10.80;4.72;;;17.10;99.90;;;;;;5074149;28;20182;-79
2021/06/14 03:48:11;;;;;;;10.48;5.13;;;17.10;99.90;;;;;;5072435;28;20170;-77
2021/06/14 03:50:37;;;;;;;7.30;4.93;;;17.10;99.90;;;;;;5074026;28;20194;-79
2021/06/14 03:53:03;;;;;;;11.35;4.00;;;17.20;99.90;;;;;;5073946;28;20193;-79
2021/06/14 03:55:29;;;;;;;13.13;5.68;;;17.30;99.90;;;;;;5072977;28;20537;-77
2021/06/14 03:57:54;;;;;;;9.60;4.40;;;17.30;99.90;;;;;;5072661;28;20555;-78
2021/06/14 04:00:21;;;;;;;16.88;4.20;;;17.40;99.90;;;;;;5072239;28;20191;-79
2021/06/14 04:02:47;;;;;;;10.15;4.28;;;17.80;99.90;;;;;;5074478;28;20177;-79
2021/06/14 04:05:13;;;;;;;17.05;4.40;;;18.20;99.90;;;;;;5074427;28;20166;-78
2021/06/14 04:07:38;;;;;;;9.13;4.22;;;18.70;99.90;;;;;;5073456;28;20162;-77
2021/06/14 04:10:06;;;;;;;8.10;4.53;;;19.20;99.90;;;;;;5072406;28;20281;-77
2021/06/14 04:12:33;;;;;;;11.45;4.57;;;19.70;99.90;;;;;;5071331;28;20184;-77
2021/06/14 04:14:59;;;;;;;9.35;3.97;;;20.20;99.90;;;;;;5072981;28;20546;-78
2021/06/14 04:17:25;;;;;;;12.48;4.10;;;20.70;99.90;;;;;;5073210;28;20579;-78
2021/06/14 04:19:50;;;;;;;13.10;4.75;;;20.90;99.90;;;;;;5073199;28;20170;-78
2021/06/14 04:22:16;;;;;;;8.57;4.18;;;20.90;99.90;;;;;;5072832;28;20688;-77
2021/06/14 04:24:42;;;;;;;11.20;4.35;;;20.80;99.90;;;;;;5072759;28;20199;-82
2021/06/14 04:27:09;;;;;;;8.18;4.00;;;20.70;99.90;;;;;;5071848;28;20251;-77
2021/06/14 04:29:35;;;;;;;15.07;4.85;;;20.60;99.90;;;;;;5073377;28;20179;-78
2021/06/14 04:32:01;;;;;;;15.13;4.68;;;20.50;99.90;;;;;;5073223;28;20259;-78
2021/06/14 04:34:27;;;;;;;9.18;4.50;;;20.40;99.90;;;;;;5084423;28;20202;-76
2021/06/14 04:36:53;;;;;;;8.55;4.47;;;20.20;99.90;;;;;;5087948;28;20174;-78
2021/06/14 04:39:19;;;;;;;5.95;4.50;;;20.20;99.90;;;;;;5072589;28;20732;-78
2021/06/14 04:41:45;;;;;;;10.95;4.60;;;20.10;99.90;;;;;;5073348;28;20262;-78
2021/06/14 04:44:11;;;;;;;12.43;5.72;;;20.00;99.90;;;;;;5072622;28;20707;-78
2021/06/14 04:46:37;;;;;;;7.03;4.57;;;20.10;99.90;;;;;;5072599;28;20285;-78
2021/06/14 04:49:03;;;;;;;12.18;4.60;;;20.00;99.90;;;;;;5072867;28;20245;-78
2021/06/14 04:51:29;;;;;;;10.27;4.75;;;19.80;99.90;;;;;;5072514;28;20286;-78
2021/06/14 04:53:54;;;;;;;9.05;4.75;;;19.50;99.90;;;;;;5072333;28;20206;-78
2021/06/14 04:56:20;;;;;;;13.85;5.28;;;19.50;99.90;;;;;;5070992;28;20265;-78
2021/06/14 04:58:46;;;;;;;13.30;5.88;;;19.50;99.90;;;;;;5072266;28;20174;-78
2021/06/14 05:01:12;;;;;;;12.40;4.60;;;19.60;99.90;;;;;;5071225;28;20186;-78
2021/06/14 05:03:37;;;;;;;16.33;5.47;;;19.70;99.90;;;;;;5071193;28;20292;-78
2021/06/14 05:06:04;;;;;;;10.75;5.63;;;19.50;99.90;;;;;;5073057;28;20173;-78
2021/06/14 05:08:29;;;;;;;16.73;6.32;;;19.50;99.90;;;;;;5071974;28;20163;-78
2021/06/14 05:10:55;;;;;;;6.22;5.13;;;19.60;99.90;;;;;;5076608;28;20187;-78
2021/06/14 05:13:21;;;;;;;10.43;4.85;;;19.70;99.90;;;;;;5091827;28;20824;-77
2021/06/14 05:15:47;;;;;;;14.00;6.03;;;19.70;99.90;;;;;;5079243;28;20239;-78
2021/06/14 05:18:13;;;;;;;9.70;5.28;;;19.80;99.90;;;;;;5076652;28;20171;-77
2021/06/14 05:20:38;;;;;;;10.18;5.00;;;19.70;99.90;;;;;;5076394;28;20205;-78
2021/06/14 05:23:04;;;;;;;6.95;5.10;;;19.70;99.90;;;;;;5076225;28;20185;-77
2021/06/14 05:25:32;;;;;;;10.20;4.78;;;19.70;99.90;;;;;;5077171;28;20248;-77
2021/06/14 05:27:57;;;;;;;8.88;4.43;;;19.70;99.90;;;;;;5089206;28;20619;-77
2021/06/14 05:30:24;;;;;;;8.65;4.38;;;19.80;99.90;;;;;;5090807;28;20222;-77
2021/06/14 05:32:49;;;;;;;11.82;5.15;;;20.00;99.90;;;;;;5090020;28;20288;-81
2021/06/14 05:35:15;;;;;;;10.80;4.72;;;20.20;99.90;;;;;;5088428;28;20429;-75
2021/06/14 05:37:41;;;;;;;5.50;3.88;;;20.00;99.90;;;;;;5090326;28;20233;-76
2021/06/14 05:40:08;;;;;;;15.52;3.72;;;20.00;99.90;;;;;;5090501;28;20190;-76
2021/06/14 05:42:34;;;;;;;9.40;3.92;;;20.30;99.90;;;;;;5081880;28;20228;-76
2021/06/14 05:45:00;;;;;;;9.32;4.15;;;20.20;99.90;;;;;;5076991;28;20576;-76
2021/06/14 05:47:26;;;;;;;6.53;4.15;;;20.30;99.90;;;;;;5076484;28;20185;-76
2021/06/14 05:49:52;;;;;;;8.73;5.13;;;20.30;99.90;;;;;;5077781;28;20646;-77
2021/06/14 05:52:18;;;;;;;5.93;4.30;;;20.40;99.90;;;;;;5076935;28;20247;-77
2021/06/14 05:54:44;;;;;;;13.68;3.30;;;20.40;99.90;;;;;;5094425;28;20213;-77
2021/06/14 05:57:10;;;;;;;5.93;3.90;;;20.40;99.90;;;;;;5096236;28;20181;-77
2021/06/14 05:59:37;;;;;;;5.40;3.70;;;20.50;99.90;;;;;;5097180;28;20167;-78
2021/06/14 06:02:06;;;;;;;10.88;3.45;;;20.60;99.90;;;;;;5076709;28;20191;-87
2021/06/14 06:04:32;;;;;;;22.80;6.22;;;20.70;99.90;;;;;;5076687;28;20181;-87
2021/06/14 06:06:58;;;;;;;16.95;4.75;;;20.80;99.90;;;;;;5075321;28;20694;-88
2021/06/14 06:09:25;;;;;;;6.28;3.25;;;20.80;99.90;;;;;;5074889;28;20700;-85
2021/06/14 06:11:51;;;;;;;13.50;3.55;;;20.80;99.90;;;;;;5080320;28;20201;-86
2021/06/14 06:14:16;;;;;;;5.97;3.08;;;21.00;99.90;;;;;;5077885;28;20198;-84
2021/06/14 06:16:42;;;;;;;5.70;3.25;;;21.00;99.90;;;;;;5076351;28;20615;-91
2021/06/14 06:19:08;;;;;;;7.75;3.70;;;21.10;99.90;;;;;;5076194;28;20275;-85
2021/06/14 06:21:34;;;;;;;10.60;2.97;;;21.10;99.90;;;;;;5074754;28;20186;-81
2021/06/14 06:24:00;;;;;;;6.68;3.45;;;21.20;99.90;;;;;;5073093;28;20174;-81
2021/06/14 06:26:25;;;;;;;4.68;3.17;;;21.50;99.90;;;;;;5073388;28;20158;-81
2021/06/14 06:28:53;;;;;;;4.57;3.28;;;21.60;99.90;;;;;;5073777;28;20626;-81
2021/06/14 06:31:19;;;;;;;10.20;4.70;;;21.60;99.90;;;;;;5075439;28;20189;-82
2021/06/14 06:33:44;;;;;;;6.78;3.17;;;21.70;99.90;;;;;;5073726;28;20438;-82
2021/06/14 06:36:11;;;;;;;5.07;2.78;;;21.70;99.90;;;;;;5075291;28;20163;-81
2021/06/14 06:38:37;;;;;;;4.88;2.85;;;21.90;99.90;;;;;;5073683;28;20552;-81
2021/06/14 06:41:05;;;;;;;6.75;2.90;;;21.90;99.90;;;;;;5057420;28;20281;-80
2021/06/14 06:43:31;;;;;;;16.10;5.38;;;22.10;99.90;;;;;;5074879;28;20167;-82
2021/06/14 06:45:57;;;;;;;5.90;2.50;;;22.30;99.90;;;;;;5074478;28;20174;-82
2021/06/14 06:48:23;;;;;;;6.63;3.25;;;22.40;99.90;;;;;;5072544;28;20173;-81
2021/06/14 06:50:49;;;;;;;7.75;3.25;;;22.40;99.90;;;;;;5074398;28;20183;-81
2021/06/14 06:53:15;;;;;;;8.40;2.75;;;22.60;99.90;;;;;;5074282;28;20199;-82
2021/06/14 06:55:40;;;;;;;4.25;2.97;;;23.60;99.90;;;;;;5074056;28;20253;-81
2021/06/14 06:58:06;;;;;;;19.98;3.70;;;24.50;99.90;;;;;;5058258;28;20274;-81
2021/06/14 07:00:32;;;;;;;15.13;3.70;;;25.90;99.90;;;;;;5051397;28;20191;-82
2021/06/14 07:02:58;;;;;;;9.52;2.80;;;26.60;99.90;;;;;;5053811;28;20210;-80
2021/06/14 07:05:24;;;;;;;12.40;2.50;;;27.90;99.90;;;;;;5053298;28;20163;-82
2021/06/14 07:07:50;;;;;;;6.75;2.78;;;28.40;98.40;;;;;;5052403;28;20183;-84
2021/06/14 07:10:17;;;;;;;3.08;2.67;;;28.50;97.20;;;;;;5052659;28;20199;-84
2021/06/14 07:12:43;;;;;;;8.55;2.83;;;29.00;95.90;;;;;;5053935;28;20198;-85
2021/06/14 07:15:13;;;;;;;6.38;2.80;;;29.60;94.90;;;;;;5055794;28;20238;-86
2021/06/14 07:17:42;;;;;;;5.03;2.40;;;29.60;94.20;;;;;;5052732;28;20246;-85
2021/06/14 07:20:09;;;;;;;9.02;3.25;;;29.60;93.80;;;;;;5054560;28;20264;-86
2021/06/14 07:22:35;;;;;;;6.70;3.42;;;30.50;92.70;;;;;;5053333;28;20563;-86
2021/06/14 07:25:01;;;;;;;5.55;3.88;;;30.30;92.00;;;;;;5053209;28;20196;-84
2021/06/14 07:27:27;;;;;;;7.13;4.20;;;30.10;92.50;;;;;;5064259;28;20170;-86
2021/06/14 07:29:52;;;;;;;12.07;4.38;;;30.30;91.70;;;;;;5072359;28;20594;-84
2021/06/14 07:32:18;;;;;;;6.95;2.58;;;30.40;91.40;;;;;;5072146;28;20385;-84
2021/06/14 07:34:45;;;;;;;6.28;2.47;;;30.80;90.70;;;;;;5070121;28;20300;-82
2021/06/14 07:37:10;;;;;;;5.60;2.22;;;30.60;90.80;;;;;;5070968;28;20189;-83
2021/06/14 07:39:36;;;;;;;23.25;3.53;;;30.10;91.10;;;;;;5072372;28;20210;-81
2021/06/14 07:42:03;;;;;;;14.45;4.00;;;30.20;91.00;;;;;;5055722;28;20194;-81
2021/06/14 07:44:29;;;;;;;6.68;2.50;;;30.20;90.70;;;;;;5051005;28;20171;-83
2021/06/14 07:46:54;;;;;;;13.35;3.15;;;31.10;90.30;;;;;;5051139;28;20236;-82
2021/06/14 07:49:20;;;;;;;19.15;3.92;;;30.50;90.70;;;;;;5051860;28;20167;-83
2021/06/14 07:51:46;;;;;;;7.53;2.40;;;30.30;90.50;;;;;;5051911;28;20654;-83
2021/06/14 07:54:15;;;;;;;7.30;2.28;;;30.20;90.40;;;;;;5052315;28;20705;-83
2021/06/14 07:56:45;;;;;;;12.38;2.47;;;29.70;90.30;;;;;;5050767;28;20174;-83
2021/06/14 07:59:10;;;;;;;6.32;2.65;;;29.40;91.50;;;;;;5050572;28;20183;-83
2021/06/14 08:01:36;;;;;;;7.78;2.83;;;28.90;92.10;;;;;;5033765;28;20198;-82
2021/06/14 08:04:02;;;;;;;5.18;2.28;;;28.30;92.80;;;;;;5051148;28;20175;-83
2021/06/14 08:06:27;;;;;;;6.15;2.63;;;27.80;91.80;;;;;;5052239;28;20203;-83
2021/06/14 08:08:53;;;;;;;2.35;2.15;;;27.50;92.50;;;;;;5051060;28;20183;-84
2021/06/14 08:11:19;;;;;;;3.83;2.03;;;27.40;92.80;;;;;;5034606;28;20211;-84
2021/06/14 08:13:46;;;;;;;4.53;2.00;;;26.90;93.20;;;;;;5054419;28;20234;-85
2021/06/14 08:16:12;;;;;;;5.50;2.33;;;26.40;93.90;;;;;;5052208;28;20596;-83
2021/06/14 08:18:50;;;;;;;11.43;2.25;;;26.50;94.30;;;;;;5071485;28;20274;-83
2021/06/14 08:21:27;;;;;;;5.57;2.58;;;26.40;93.60;;;;;;5065810;28;20203;-83
2021/06/14 08:26:38;;;;;;;4.10;2.42;;;26.30;93.70;;;;;;5073850;28;20228;-83
2021/06/14 08:29:04;;;;;;;10.05;2.03;;;26.10;94.20;;;;;;5070934;28;20166;-83
2021/06/14 08:31:32;;;;;;;9.68;2.58;;;26.30;93.10;;;;;;5071138;28;20194;-84
2021/06/14 08:33:58;;;;;;;5.50;2.63;;;26.30;92.30;;;;;;5071849;28;20204;-82
2021/06/14 08:36:25;;;;;;;4.75;2.38;;;26.00;93.20;;;;;;5079425;28;20210;-82
2021/06/14 08:38:51;;;;;;;11.90;2.50;;;25.90;93.20;;;;;;5091682;28;20211;-82
2021/06/14 08:41:21;;;;;;;2.42;2.22;;;26.00;93.10;;;;;;5094495;28;20177;-82
2021/06/14 08:43:48;;;;;;;3.72;1.95;;;26.10;93.40;;;;;;5095934;28;20154;-83
2021/06/14 08:46:16;;;;;;;3.05;1.90;;;26.30;93.10;;;;;;5081643;28;20701;-81
2021/06/14 08:48:42;;;;;;;2.70;1.98;;;26.20;93.10;;;;;;5061417;28;20654;-81
2021/06/14 08:51:09;;;;;;;2.83;2.25;;;26.10;92.90;;;;;;5075423;28;20254;-81
2021/06/14 08:53:36;;;;;;;4.20;2.13;;;26.20;92.80;;;;;;5075498;28;20213;-81
2021/06/14 08:56:03;;;;;;;9.35;3.00;;;26.40;93.90;;;;;;5075409;28;20244;-82
2021/06/14 08:58:32;;;;;;;5.90;2.78;;;26.50;93.00;;;;;;5075228;28;20163;-81
2021/06/14 09:00:59;;;;;;;7.03;2.42;;;26.60;93.00;;;;;;5076222;28;20433;-87
2021/06/14 09:03:25;;;;;;;4.57;2.38;;;26.40;93.50;;;;;;5077197;28;20170;-85
2021/06/14 09:05:51;;;;;;;6.78;2.22;;;26.30;93.20;;;;;;5077264;28;20174;-87
2021/06/14 09:08:22;;;;;;;2.60;2.15;;;26.30;93.20;;;;;;5076234;28;20506;-86
2021/06/14 09:10:49;;;;;;;6.70;2.60;;;26.40;93.30;;;;;;5075948;28;20182;-89
2021/06/14 09:13:19;;;;;;;9.25;2.38;;;26.40;93.20;;;;;;5076114;28;20226;-86
2021/06/14 09:15:47;;;;;;;15.88;3.03;;;26.40;93.40;;;;;;5078064;28;20239;-88
2021/06/14 09:18:28;;;;;;;7.65;2.65;;;26.40;94.20;;;;;;5076361;28;20254;-81
2021/06/14 09:20:56;;;;;;;2.90;2.20;;;26.50;93.60;;;;;;5076318;28;20665;-82
2021/06/14 09:23:23;;;;;;;6.80;2.55;;;26.60;94.40;;;;;;5074862;28;20189;-81
2021/06/14 09:25:50;;;;;;;4.50;2.92;;;26.70;93.90;;;;;;5075143;28;20185;-80
2021/06/14 09:28:16;;;;;;;6.20;3.58;;;26.60;93.80;;;;;;5076385;28;20239;-85
2021/06/14 09:30:42;;;;;;;7.00;3.25;;;26.70;93.80;;;;;;5077772;28;20191;-81
2021/06/14 09:33:19;;;;;;;10.77;2.80;;;26.70;93.40;;;;;;5077014;28;20528;-93
2021/06/14 09:35:45;;;;;;;2.30;2.10;;;26.90;93.50;;;;;;5076506;28;20615;-89
2021/06/14 09:38:16;;;;;;;8.52;3.00;;;26.80;92.60;;;;;;5077763;28;20239;-81
2021/06/14 09:40:50;;;;;;;11.38;2.75;;;27.00;92.60;;;;;;5076651;28;20178;-80
2021/06/14 09:43:25;;;;;;;9.85;3.38;;;26.90;92.70;;;;;;5077861;28;20263;-81
2021/06/14 09:45:51;;;;;;;9.75;3.05;;;27.00;92.90;;;;;;5074537;28;20594;-79
2021/06/14 09:48:19;;;;;;;5.03;2.50;;;27.10;93.60;;;;;;5076398;28;20684;-79
2021/06/14 09:50:46;;;;;;;7.97;2.60;;;27.20;92.70;;;;;;5075991;28;20182;-81
2021/06/14 09:53:24;;;;;;;7.82;3.38;;;27.20;93.10;;;;;;5075744;28;20205;-80
2021/06/14 09:55:51;;;;;;;4.22;2.30;;;27.40;93.00;;;;;;5074219;28;20216;-80
2021/06/14 09:58:24;;;;;;;4.30;2.22;;;27.40;94.60;;;;;;5074010;28;20159;-80
2021/06/14 10:01:03;;;;;;;11.85;2.20;;;27.70;93.40;;;;;;5075385;28;20186;-80
2021/06/14 10:03:46;;;;;;;4.00;2.15;;;27.80;92.50;;;;;;5075840;28;20173;-81
2021/06/14 10:06:13;;;;;;;4.53;2.75;;;27.60;93.90;;;;;;5076364;28;20162;-83
2021/06/14 10:08:43;;;;;;;9.13;2.55;;;27.60;92.90;;;;;;5075572;28;20166;-84
2021/06/14 10:11:18;;;;;;;5.18;2.40;;;27.50;92.60;;;;;;5075635;28;20198;-86
2021/06/14 10:13:46;;;;;;;6.03;2.50;;;27.50;93.60;;;;;;5075966;28;20209;-89
2021/06/14 10:16:22;;;;;;;2.60;1.98;;;27.50;92.80;;;;;;5076474;28;20642;-81
2021/06/14 10:18:59;;;;;;;4.85;2.65;;;27.50;92.60;;;;;;5076576;28;20575;-80
2021/06/14 10:21:29;;;;;;;4.35;2.45;;;27.70;93.10;;;;;;5076017;28;20387;-86
2021/06/14 10:23:56;;;;;;;5.30;2.50;;;27.80;93.10;;;;;;5075787;28;20163;-82
2021/06/14 10:26:24;;;;;;;2.47;1.63;;;27.70;93.60;;;;;;5075712;28;20657;-80
2021/06/14 10:28:50;;;;;;;4.57;1.88;;;27.80;94.60;;;;;;5074794;28;20171;-80
2021/06/14 10:31:19;;;;;;;7.00;1.85;;;27.70;92.50;;;;;;5075290;28;20185;-79
2021/06/14 10:33:47;;;;;;;7.95;2.13;;;27.70;92.90;;;;;;5074668;28;20206;-79
2021/06/14 10:36:14;;;;;;;6.97;2.13;;;27.90;94.00;;;;;;5074998;28;20192;-79
2021/06/14 10:38:46;;;;;;;4.32;2.45;;;27.90;93.10;;;;;;5076276;28;20815;-80
2021/06/14 10:41:12;;;;;;;3.08;1.80;;;27.80;92.40;;;;;;5075390;28;20197;-80
2021/06/14 10:43:39;;;;;;;6.55;2.05;;;27.90;92.00;;;;;;5074979;28;20615;-79
2021/06/14 10:46:08;;;;;;;7.22;2.42;;;27.80;92.50;;;;;;5075357;28;20183;-84
2021/06/14 10:48:35;;;;;;;5.88;2.33;;;27.80;92.80;;;;;;5075806;28;20228;-83
2021/06/14 10:51:03;;;;;;;1.70;1.60;;;27.80;93.60;;;;;;5074456;28;20594;-85
2021/06/14 10:53:31;;;;;;;5.03;1.98;;;27.90;92.80;;;;;;5075331;28;20194;-88
2021/06/14 10:56:01;;;;;;;10.75;2.55;;;28.00;92.60;;;;;;5075564;28;20165;-78
2021/06/14 10:58:30;;;;;;;2.83;2.10;;;28.00;91.90;;;;;;5072991;28;20193;-79
2021/06/14 11:01:04;;;;;;;5.68;2.40;;;28.00;92.30;;;;;;5073896;28;20191;-82
2021/06/14 11:03:56;;;;;;;4.25;2.45;;;28.00;91.30;;;;;;5072623;28;20170;-82
2021/06/14 11:06:28;;;;;;;3.33;2.30;;;27.90;91.30;;;;;;5072367;28;20270;-83
2021/06/14 11:09:11;;;;;;;9.32;2.55;;;28.10;91.20;;;;;;5072137;28;20534;-83
2021/06/14 11:11:47;;;;;;;2.92;2.50;;;28.10;92.00;;;;;;5080985;28;20225;-83
2021/06/14 11:14:14;;;;;;;5.45;2.55;;;28.20;92.00;;;;;;5093910;28;20197;-82
2021/06/14 11:16:40;;;;;;;9.35;2.53;;;28.00;91.60;;;;;;5097898;28;20181;-84
2021/06/14 11:19:11;;;;;;;3.13;2.47;;;28.00;91.50;;;;;;5097269;28;20159;-85
2021/06/14 11:21:39;;;;;;;5.93;1.80;;;28.10;91.20;;;;;;5074679;28;20252;-88
2021/06/14 11:24:10;;;;;;;3.67;2.25;;;28.00;90.40;;;;;;5073866;28;20569;-86
2021/06/14 11:26:37;;;;;;;3.30;1.52;;;28.00;90.70;;;;;;5074357;28;20162;-88
2021/06/14 11:29:14;;;;;;;5.10;1.88;;;28.10;91.40;;;;;;5076164;28;20163;-89
2021/06/14 11:31:40;;;;;;;2.38;1.70;;;28.00;90.20;;;;;;5074201;28;20530;-88
2021/06/14 11:34:19;;;;;;;2.97;1.95;;;28.00;90.00;;;;;;5074916;28;20190;-89
2021/06/14 11:36:55;;;;;;;4.90;2.60;;;28.00;90.20;;;;;;5075017;28;20169;-85
2021/06/14 11:39:21;;;;;;;2.97;2.10;;;28.00;91.60;;;;;;5079408;28;20299;-85
2021/06/14 11:41:47;;;;;;;7.63;2.13;;;28.00;92.30;;;;;;5082849;28;20241;-85
2021/06/14 11:44:27;;;;;;;4.03;1.60;;;28.00;90.90;;;;;;5075140;28;20185;-85
2021/06/14 11:47:12;;;;;;;5.47;1.50;;;28.10;90.30;;;;;;5076082;28;20165;-83
2021/06/14 11:49:39;;;;;;;2.58;1.98;;;28.30;91.20;;;;;;5076777;28;20618;-82
2021/06/14 11:52:20;;;;;;;3.03;2.05;;;28.50;90.40;;;;;;5073943;28;20677;-84
2021/06/14 11:54:48;;;;;;;2.40;2.17;;;28.60;89.80;;;;;;5074614;28;20202;-83
2021/06/14 11:57:14;;;;;;;3.42;2.30;;;28.60;89.10;;;;;;5075671;28;20165;-85
2021/06/14 11:59:40;;;;;;;3.95;2.08;;;28.60;88.50;;;;;;5074487;28;20265;-89
2021/06/14 12:02:26;;;;;;;6.85;2.00;;;28.50;87.80;;;;;;5072821;28;20183;-84
2021/06/14 12:04:57;;;;;;;7.88;3.08;;;28.50;87.60;;;;;;5075368;28;20170;-84
2021/06/14 12:07:28;;;;;;;4.50;1.60;;;28.40;88.30;;;;;;5075554;28;20179;-85
2021/06/14 12:09:56;;;;;;;5.95;2.67;;;28.40;88.00;;;;;;5066069;28;20171;-82
2021/06/14 12:12:22;;;;;;;4.03;2.28;;;28.40;88.90;;;;;;5053117;28;20191;-83
2021/06/14 12:14:56;;;;;;;6.72;1.65;;;28.40;88.60;;;;;;5053672;28;20601;-83
2021/06/14 12:17:30;;;;;;;6.82;2.00;;;28.40;88.10;;;;;;5055482;28;20256;-83
2021/06/14 12:19:57;;;;;;;3.42;1.92;;;28.60;87.30;;;;;;5051589;28;20174;-82
2021/06/14 12:22:24;;;;;;;6.32;1.75;;;28.40;86.80;;;;;;5049770;28;20182;-82
2021/06/14 12:24:51;;;;;;;3.97;2.20;;;28.50;85.80;;;;;;5051158;28;20178;-82
2021/06/14 12:27:18;;;;;;;5.13;1.90;;;28.40;87.00;;;;;;5054846;28;20178;-83
2021/06/14 12:29:44;;;;;;;2.25;1.45;;;28.30;86.60;;;;;;5071178;28;20569;-82
2021/06/14 12:32:13;;;;;;;8.02;1.80;;;28.20;84.90;;;;;;5070449;28;20266;-83
2021/06/14 12:34:40;;;;;;;2.67;1.52;;;28.50;87.60;;;;;;5071802;28;20206;-82
2021/06/14 12:39:59;;;;;;;2.30;1.70;;;28.60;86.00;;;;;;5053916;28;20257;-81
2021/06/14 12:42:24;;;;;;;1.60;1.50;;;28.50;85.90;;;;;;5071303;28;20184;-83
2021/06/14 12:44:54;;;;;;;5.97;1.85;;;28.70;84.90;;;;;;5070879;28;20197;-82
2021/06/14 12:47:21;;;;;;;1.77;1.50;;;28.70;85.90;;;;;;5069384;28;20182;-83
2021/06/14 12:49:49;;;;;;;2.65;1.77;;;28.60;86.00;;;;;;5072063;28;20247;-82
2021/06/14 12:52:20;;;;;;;2.10;1.60;;;28.50;86.40;;;;;;5070774;28;20166;-82
2021/06/14 12:54:47;;;;;;;2.42;2.05;;;28.50;86.20;;;;;;5069685;28;20211;-81